CYFD weather

Brantford Municipal Airport
Brantford, Ontario, Canada

Public forecast

Using degrees Celsius for public forecast. Weather courtesy of forecast.io.

METAR (pilot weather report)

Closest report is John C. Munro Hamilton International Airport, 18.0 nm (33.4 km) E. Retrieved 2019/03/23 06:00 UTC (3 minutes ago):

CYHM 230600Z 32016KT 15SM SKC M04/M10 A2996 RMK SLP157

TAF (pilot weather forecast)

Closest forecast is John C. Munro Hamilton International Airport, 18.0 nm (33.4 km) E. Retrieved 2019/03/23 06:42 UTC (0 seconds ago):

TAF TAF CYHM 230539Z 2306/2406 32012G22KT P6SM SKC BECMG 2311/2313 32010KT FM231500 30010G20KT P6SM SKC BECMG 2321/2323 26010G20KT BECMG 2403/2405 24012KT RMK NXT FCST BY 231200Z